sensor_id;sensor_type;location;lat;lon;timestamp;temperature;humidity
11599;DHT22;5855;48.840;9.188;2022-12-18T00:00:05;-9.00;99.90
11599;DHT22;5855;48.840;9.188;2022-12-18T00:02:32;-9.00;99.90
11599;DHT22;5855;48.840;9.188;2022-12-18T00:04:59;-9.10;99.90
11599;DHT22;5855;48.840;9.188;2022-12-18T00:07:27;-9.10;99.90
11599;DHT22;5855;48.840;9.188;2022-12-18T00:09:54;-9.10;99.90
11599;DHT22;5855;48.840;9.188;2022-12-18T00:12:21;-9.10;99.90
11599;DHT22;5855;48.840;9.188;2022-12-18T00:14:48;-9.10;99.90
11599;DHT22;5855;48.840;9.188;2022-12-18T00:17:14;-9.10;99.90
11599;DHT22;5855;48.840;9.188;2022-12-18T00:19:41;-9.10;99.90
11599;DHT22;5855;48.840;9.188;2022-12-18T00:22:08;-9.10;99.90
11599;DHT22;5855;48.840;9.188;2022-12-18T00:24:36;-9.10;99.90
11599;DHT22;5855;48.840;9.188;2022-12-18T00:27:03;-9.10;99.90
11599;DHT22;5855;48.840;9.188;2022-12-18T00:29:30;-9.10;99.90
11599;DHT22;5855;48.840;9.188;2022-12-18T00:31:56;-9.20;99.90
11599;DHT22;5855;48.840;9.188;2022-12-18T00:34:23;-9.10;99.90
11599;DHT22;5855;48.840;9.188;2022-12-18T00:36:50;-9.10;99.90
11599;DHT22;5855;48.840;9.188;2022-12-18T00:39:17;-9.10;99.90
11599;DHT22;5855;48.840;9.188;2022-12-18T00:41:45;-9.10;99.90
11599;DHT22;5855;48.840;9.188;2022-12-18T00:44:29;-9.10;99.90
11599;DHT22;5855;48.840;9.188;2022-12-18T00:46:56;-9.20;99.90
11599;DHT22;5855;48.840;9.188;2022-12-18T00:49:23;-9.20;99.90
11599;DHT22;5855;48.840;9.188;2022-12-18T00:51:50;-9.20;99.90
11599;DHT22;5855;48.840;9.188;2022-12-18T00:54:17;-9.10;99.90
11599;DHT22;5855;48.840;9.188;2022-12-18T00:56:45;-9.10;99.90
11599;DHT22;5855;48.840;9.188;2022-12-18T00:59:12;-9.10;99.90
11599;DHT22;5855;48.840;9.188;2022-12-18T01:01:39;-9.10;99.90
11599;DHT22;5855;48.840;9.188;2022-12-18T01:04:06;-9.10;99.90
11599;DHT22;5855;48.840;9.188;2022-12-18T01:06:32;-9.10;99.90
11599;DHT22;5855;48.840;9.188;2022-12-18T01:08:59;-9.00;99.90
11599;DHT22;5855;48.840;9.188;2022-12-18T01:11:26;-9.00;99.90
11599;DHT22;5855;48.840;9.188;2022-12-18T01:13:55;-9.10;99.90
11599;DHT22;5855;48.840;9.188;2022-12-18T01:16:22;-9.10;99.90
11599;DHT22;5855;48.840;9.188;2022-12-18T01:18:51;-9.10;99.90
11599;DHT22;5855;48.840;9.188;2022-12-18T01:21:19;-9.10;99.90
11599;DHT22;5855;48.840;9.188;2022-12-18T01:23:46;-9.10;99.90
11599;DHT22;5855;48.840;9.188;2022-12-18T01:26:14;-9.10;99.90
11599;DHT22;5855;48.840;9.188;2022-12-18T01:28:42;-9.10;99.90
11599;DHT22;5855;48.840;9.188;2022-12-18T01:31:12;-9.00;99.90
11599;DHT22;5855;48.840;9.188;2022-12-18T01:33:39;-9.00;99.90
11599;DHT22;5855;48.840;9.188;2022-12-18T01:36:06;-8.90;99.90
11599;DHT22;5855;48.840;9.188;2022-12-18T01:38:33;-8.90;99.90
11599;DHT22;5855;48.840;9.188;2022-12-18T01:41:02;-8.90;99.90
11599;DHT22;5855;48.840;9.188;2022-12-18T01:43:47;-8.90;99.90
11599;DHT22;5855;48.840;9.188;2022-12-18T01:46:17;-9.00;99.90
11599;DHT22;5855;48.840;9.188;2022-12-18T01:48:45;-9.00;99.90
11599;DHT22;5855;48.840;9.188;2022-12-18T01:51:13;-9.00;99.90
11599;DHT22;5855;48.840;9.188;2022-12-18T01:53:41;-9.00;99.90
11599;DHT22;5855;48.840;9.188;2022-12-18T01:56:12;-8.90;99.90
11599;DHT22;5855;48.840;9.188;2022-12-18T01:58:46;-8.80;99.90
11599;DHT22;5855;48.840;9.188;2022-12-18T02:01:16;-8.80;99.90
11599;DHT22;5855;48.840;9.188;2022-12-18T02:03:43;-8.70;99.90
11599;DHT22;5855;48.840;9.188;2022-12-18T02:06:15;-8.70;99.90
11599;DHT22;5855;48.840;9.188;2022-12-18T02:08:49;-8.60;99.90
11599;DHT22;5855;48.840;9.188;2022-12-18T02:11:25;-8.60;99.90
11599;DHT22;5855;48.840;9.188;2022-12-18T02:14:01;-8.60;99.90
11599;DHT22;5855;48.840;9.188;2022-12-18T02:16:36;-8.60;99.90
11599;DHT22;5855;48.840;9.188;2022-12-18T02:19:12;-8.60;99.90
11599;DHT22;5855;48.840;9.188;2022-12-18T02:21:48;-8.50;99.90
11599;DHT22;5855;48.840;9.188;2022-12-18T02:24:24;-8.40;99.90
11599;DHT22;5855;48.840;9.188;2022-12-18T02:26:56;-8.40;99.90
11599;DHT22;5855;48.840;9.188;2022-12-18T02:29:29;-8.40;99.90
11599;DHT22;5855;48.840;9.188;2022-12-18T02:32:00;-8.40;99.90
11599;DHT22;5855;48.840;9.188;2022-12-18T02:34:31;-8.40;99.90
11599;DHT22;5855;48.840;9.188;2022-12-18T02:37:01;-8.40;99.90
11599;DHT22;5855;48.840;9.188;2022-12-18T02:39:29;-8.40;99.90
11599;DHT22;5855;48.840;9.188;2022-12-18T02:41:59;-8.50;99.90
11599;DHT22;5855;48.840;9.188;2022-12-18T02:44:27;-8.50;99.90
11599;DHT22;5855;48.840;9.188;2022-12-18T02:46:54;-8.50;99.90
11599;DHT22;5855;48.840;9.188;2022-12-18T02:49:32;-8.50;99.90
11599;DHT22;5855;48.840;9.188;2022-12-18T02:52:07;-8.50;99.90
11599;DHT22;5855;48.840;9.188;2022-12-18T02:54:55;-8.50;99.90
11599;DHT22;5855;48.840;9.188;2022-12-18T02:57:33;-8.50;99.90
11599;DHT22;5855;48.840;9.188;2022-12-18T03:00:05;-8.50;99.90
11599;DHT22;5855;48.840;9.188;2022-12-18T03:02:37;-8.50;99.90
11599;DHT22;5855;48.840;9.188;2022-12-18T03:05:11;-8.40;99.90
11599;DHT22;5855;48.840;9.188;2022-12-18T03:07:43;-8.30;99.90
11599;DHT22;5855;48.840;9.188;2022-12-18T03:10:14;-8.20;99.90
11599;DHT22;5855;48.840;9.188;2022-12-18T03:12:49;-8.20;99.90
11599;DHT22;5855;48.840;9.188;2022-12-18T03:15:19;-8.10;99.90
11599;DHT22;5855;48.840;9.188;2022-12-18T03:17:52;-8.10;99.90
11599;DHT22;5855;48.840;9.188;2022-12-18T03:20:21;-8.00;99.90
11599;DHT22;5855;48.840;9.188;2022-12-18T03:22:52;-7.90;99.90
11599;DHT22;5855;48.840;9.188;2022-12-18T03:25:19;-8.00;99.90
11599;DHT22;5855;48.840;9.188;2022-12-18T03:27:50;-8.00;99.90
11599;DHT22;5855;48.840;9.188;2022-12-18T03:30:17;-8.00;99.90
11599;DHT22;5855;48.840;9.188;2022-12-18T03:32:48;-8.00;99.90
11599;DHT22;5855;48.840;9.188;2022-12-18T03:35:22;-8.00;99.90
11599;DHT22;5855;48.840;9.188;2022-12-18T03:37:50;-7.90;99.90
11599;DHT22;5855;48.840;9.188;2022-12-18T03:40:18;-7.90;99.90
11599;DHT22;5855;48.840;9.188;2022-12-18T03:42:51;-7.90;99.90
11599;DHT22;5855;48.840;9.188;2022-12-18T03:45:22;-7.90;99.90
11599;DHT22;5855;48.840;9.188;2022-12-18T03:47:58;-7.80;99.90
11599;DHT22;5855;48.840;9.188;2022-12-18T03:50:34;-7.80;99.90
11599;DHT22;5855;48.840;9.188;2022-12-18T03:53:10;-7.80;99.90
11599;DHT22;5855;48.840;9.188;2022-12-18T03:55:42;-7.90;99.90
11599;DHT22;5855;48.840;9.188;2022-12-18T03:58:13;-7.90;99.90
11599;DHT22;5855;48.840;9.188;2022-12-18T04:00:42;-7.80;99.90
11599;DHT22;5855;48.840;9.188;2022-12-18T04:03:10;-7.90;99.90
11599;DHT22;5855;48.840;9.188;2022-12-18T04:05:39;-7.80;99.90
11599;DHT22;5855;48.840;9.188;2022-12-18T04:08:07;-7.80;99.90
11599;DHT22;5855;48.840;9.188;2022-12-18T04:10:36;-7.90;99.90
11599;DHT22;5855;48.840;9.188;2022-12-18T04:13:03;-7.90;99.90
11599;DHT22;5855;48.840;9.188;2022-12-18T04:15:32;-7.90;99.90
11599;DHT22;5855;48.840;9.188;2022-12-18T04:18:00;-7.90;99.90
11599;DHT22;5855;48.840;9.188;2022-12-18T04:20:27;-8.00;99.90
11599;DHT22;5855;48.840;9.188;2022-12-18T04:22:54;-8.00;99.90
11599;DHT22;5855;48.840;9.188;2022-12-18T04:25:21;-8.10;99.90
11599;DHT22;5855;48.840;9.188;2022-12-18T04:27:47;-8.10;99.90
11599;DHT22;5855;48.840;9.188;2022-12-18T04:30:14;-8.10;99.90
11599;DHT22;5855;48.840;9.188;2022-12-18T04:32:42;-8.10;99.90
11599;DHT22;5855;48.840;9.188;2022-12-18T04:35:09;-8.10;99.90
11599;DHT22;5855;48.840;9.188;2022-12-18T04:37:37;-8.10;99.90
11599;DHT22;5855;48.840;9.188;2022-12-18T04:40:05;-8.10;99.90
11599;DHT22;5855;48.840;9.188;2022-12-18T04:42:32;-8.10;99.90
11599;DHT22;5855;48.840;9.188;2022-12-18T04:44:58;-8.00;99.90
11599;DHT22;5855;48.840;9.188;2022-12-18T04:47:25;-8.00;99.90
11599;DHT22;5855;48.840;9.188;2022-12-18T04:49:53;-8.00;99.90
11599;DHT22;5855;48.840;9.188;2022-12-18T04:52:20;-8.00;99.90
11599;DHT22;5855;48.840;9.188;2022-12-18T04:54:49;-8.00;99.90
11599;DHT22;5855;48.840;9.188;2022-12-18T04:57:16;-8.00;99.90
11599;DHT22;5855;48.840;9.188;2022-12-18T04:59:44;-8.00;99.90
11599;DHT22;5855;48.840;9.188;2022-12-18T05:02:11;-8.00;99.90
11599;DHT22;5855;48.840;9.188;2022-12-18T05:04:38;-8.00;99.90
11599;DHT22;5855;48.840;9.188;2022-12-18T05:07:09;-8.10;99.90
11599;DHT22;5855;48.840;9.188;2022-12-18T05:09:36;-8.10;99.90
11599;DHT22;5855;48.840;9.188;2022-12-18T05:12:03;-8.10;99.90
11599;DHT22;5855;48.840;9.188;2022-12-18T05:14:30;-8.10;99.90
11599;DHT22;5855;48.840;9.188;2022-12-18T05:16:57;-8.10;99.90
11599;DHT22;5855;48.840;9.188;2022-12-18T05:19:24;-8.10;99.90
11599;DHT22;5855;48.840;9.188;2022-12-18T05:21:50;-8.20;99.90
11599;DHT22;5855;48.840;9.188;2022-12-18T05:24:19;-8.20;99.90
11599;DHT22;5855;48.840;9.188;2022-12-18T05:26:46;-8.30;99.90
11599;DHT22;5855;48.840;9.188;2022-12-18T05:29:12;-8.40;99.90
11599;DHT22;5855;48.840;9.188;2022-12-18T05:31:39;-8.50;99.90
11599;DHT22;5855;48.840;9.188;2022-12-18T05:34:06;-8.60;99.90
11599;DHT22;5855;48.840;9.188;2022-12-18T05:36:33;-8.60;99.90
11599;DHT22;5855;48.840;9.188;2022-12-18T05:38:59;-8.60;99.90
11599;DHT22;5855;48.840;9.188;2022-12-18T05:41:28;-8.60;99.90
11599;DHT22;5855;48.840;9.188;2022-12-18T05:43:55;-8.60;99.90
11599;DHT22;5855;48.840;9.188;2022-12-18T05:46:22;-8.60;99.90
11599;DHT22;5855;48.840;9.188;2022-12-18T05:48:49;-8.60;99.90
11599;DHT22;5855;48.840;9.188;2022-12-18T05:51:19;-8.60;99.90
11599;DHT22;5855;48.840;9.188;2022-12-18T05:53:47;-8.70;99.90
11599;DHT22;5855;48.840;9.188;2022-12-18T05:56:17;-8.80;99.90
11599;DHT22;5855;48.840;9.188;2022-12-18T05:58:46;-8.90;99.90
11599;DHT22;5855;48.840;9.188;2022-12-18T06:01:15;-8.90;99.90
11599;DHT22;5855;48.840;9.188;2022-12-18T06:03:42;-8.90;99.90
11599;DHT22;5855;48.840;9.188;2022-12-18T06:06:13;-8.90;99.90
11599;DHT22;5855;48.840;9.188;2022-12-18T06:08:41;-8.90;99.90
11599;DHT22;5855;48.840;9.188;2022-12-18T06:11:07;-9.00;99.90
11599;DHT22;5855;48.840;9.188;2022-12-18T06:13:34;-8.90;99.90
11599;DHT22;5855;48.840;9.188;2022-12-18T06:16:03;-9.00;99.90
11599;DHT22;5855;48.840;9.188;2022-12-18T06:18:31;-9.10;99.90
11599;DHT22;5855;48.840;9.188;2022-12-18T06:20:58;-9.00;99.90
11599;DHT22;5855;48.840;9.188;2022-12-18T06:23:25;-9.10;99.90
11599;DHT22;5855;48.840;9.188;2022-12-18T06:25:52;-9.10;99.90
11599;DHT22;5855;48.840;9.188;2022-12-18T06:28:19;-9.10;99.90
11599;DHT22;5855;48.840;9.188;2022-12-18T06:30:47;-9.10;99.90
11599;DHT22;5855;48.840;9.188;2022-12-18T06:33:16;-9.20;99.90
11599;DHT22;5855;48.840;9.188;2022-12-18T06:35:43;-9.20;99.90
11599;DHT22;5855;48.840;9.188;2022-12-18T06:38:10;-9.20;99.90
11599;DHT22;5855;48.840;9.188;2022-12-18T06:40:38;-9.20;99.90
11599;DHT22;5855;48.840;9.188;2022-12-18T06:43:05;-9.20;99.90
11599;DHT22;5855;48.840;9.188;2022-12-18T06:45:32;-9.30;99.90
11599;DHT22;5855;48.840;9.188;2022-12-18T06:47:59;-9.30;99.90
11599;DHT22;5855;48.840;9.188;2022-12-18T06:50:27;-9.30;99.90
11599;DHT22;5855;48.840;9.188;2022-12-18T06:52:54;-9.40;99.90
11599;DHT22;5855;48.840;9.188;2022-12-18T06:55:22;-9.40;99.90
11599;DHT22;5855;48.840;9.188;2022-12-18T06:57:48;-9.40;99.90
11599;DHT22;5855;48.840;9.188;2022-12-18T07:00:16;-9.50;99.90
11599;DHT22;5855;48.840;9.188;2022-12-18T07:02:42;-9.40;99.90
11599;DHT22;5855;48.840;9.188;2022-12-18T07:05:09;-9.40;99.90
11599;DHT22;5855;48.840;9.188;2022-12-18T07:07:37;-9.40;99.90
11599;DHT22;5855;48.840;9.188;2022-12-18T07:10:05;-9.40;99.90
11599;DHT22;5855;48.840;9.188;2022-12-18T07:12:32;-9.50;99.90
11599;DHT22;5855;48.840;9.188;2022-12-18T07:14:58;-9.50;99.90
11599;DHT22;5855;48.840;9.188;2022-12-18T07:17:25;-9.50;99.90
11599;DHT22;5855;48.840;9.188;2022-12-18T07:19:52;-9.50;99.90
11599;DHT22;5855;48.840;9.188;2022-12-18T07:22:21;-9.40;99.90
11599;DHT22;5855;48.840;9.188;2022-12-18T07:24:50;-9.40;99.90
11599;DHT22;5855;48.840;9.188;2022-12-18T07:27:17;-9.40;99.90
11599;DHT22;5855;48.840;9.188;2022-12-18T07:29:44;-9.40;99.90
11599;DHT22;5855;48.840;9.188;2022-12-18T07:32:11;-9.30;99.90
11599;DHT22;5855;48.840;9.188;2022-12-18T07:34:37;-9.20;99.90
11599;DHT22;5855;48.840;9.188;2022-12-18T07:37:04;-9.20;99.90
11599;DHT22;5855;48.840;9.188;2022-12-18T07:39:31;-9.20;99.90
11599;DHT22;5855;48.840;9.188;2022-12-18T07:42:00;-9.20;99.90
11599;DHT22;5855;48.840;9.188;2022-12-18T07:44:44;-9.20;99.90
11599;DHT22;5855;48.840;9.188;2022-12-18T07:47:11;-9.20;99.90
11599;DHT22;5855;48.840;9.188;2022-12-18T07:49:38;-9.20;99.90
11599;DHT22;5855;48.840;9.188;2022-12-18T07:52:05;-9.20;99.90
11599;DHT22;5855;48.840;9.188;2022-12-18T07:54:32;-9.10;99.90
11599;DHT22;5855;48.840;9.188;2022-12-18T07:57:00;-9.00;99.90
11599;DHT22;5855;48.840;9.188;2022-12-18T07:59:27;-9.00;99.90
11599;DHT22;5855;48.840;9.188;2022-12-18T08:01:54;-8.90;99.90
11599;DHT22;5855;48.840;9.188;2022-12-18T08:04:28;-8.80;99.90
11599;DHT22;5855;48.840;9.188;2022-12-18T08:06:55;-8.80;99.90
11599;DHT22;5855;48.840;9.188;2022-12-18T08:09:22;-8.70;99.90
11599;DHT22;5855;48.840;9.188;2022-12-18T08:11:48;-8.60;99.90
11599;DHT22;5855;48.840;9.188;2022-12-18T08:14:17;-8.60;99.90
11599;DHT22;5855;48.840;9.188;2022-12-18T08:16:43;-8.50;99.90
11599;DHT22;5855;48.840;9.188;2022-12-18T08:19:10;-8.40;99.90
11599;DHT22;5855;48.840;9.188;2022-12-18T08:21:37;-8.30;99.90
11599;DHT22;5855;48.840;9.188;2022-12-18T08:24:09;-8.20;99.90
11599;DHT22;5855;48.840;9.188;2022-12-18T08:26:36;-8.10;99.90
11599;DHT22;5855;48.840;9.188;2022-12-18T08:29:03;-8.00;99.90
11599;DHT22;5855;48.840;9.188;2022-12-18T08:31:31;-7.90;99.90
11599;DHT22;5855;48.840;9.188;2022-12-18T08:33:58;-7.70;99.90
11599;DHT22;5855;48.840;9.188;2022-12-18T08:36:25;-7.50;99.90
11599;DHT22;5855;48.840;9.188;2022-12-18T08:38:52;-7.40;99.90
11599;DHT22;5855;48.840;9.188;2022-12-18T08:41:19;-7.30;99.90
11599;DHT22;5855;48.840;9.188;2022-12-18T08:43:46;-7.10;99.90
11599;DHT22;5855;48.840;9.188;2022-12-18T08:46:35;-7.00;99.90
11599;DHT22;5855;48.840;9.188;2022-12-18T08:49:02;-6.80;99.90
11599;DHT22;5855;48.840;9.188;2022-12-18T08:51:29;-6.70;99.90
11599;DHT22;5855;48.840;9.188;2022-12-18T08:53:56;-6.50;99.90
11599;DHT22;5855;48.840;9.188;2022-12-18T08:56:23;-6.30;99.90
11599;DHT22;5855;48.840;9.188;2022-12-18T08:58:51;-6.10;99.90
11599;DHT22;5855;48.840;9.188;2022-12-18T09:01:19;-6.00;99.90
11599;DHT22;5855;48.840;9.188;2022-12-18T09:03:47;-5.80;99.90
11599;DHT22;5855;48.840;9.188;2022-12-18T09:06:15;-5.60;99.90
11599;DHT22;5855;48.840;9.188;2022-12-18T09:08:42;-5.50;99.90
11599;DHT22;5855;48.840;9.188;2022-12-18T09:11:13;-5.30;99.90
11599;DHT22;5855;48.840;9.188;2022-12-18T09:13:40;-5.20;99.90
11599;DHT22;5855;48.840;9.188;2022-12-18T09:16:07;-5.20;99.90
11599;DHT22;5855;48.840;9.188;2022-12-18T09:18:34;-5.30;99.90
11599;DHT22;5855;48.840;9.188;2022-12-18T09:21:09;-5.30;99.90
11599;DHT22;5855;48.840;9.188;2022-12-18T09:23:36;-5.20;99.90
11599;DHT22;5855;48.840;9.188;2022-12-18T09:26:02;-5.00;99.90
11599;DHT22;5855;48.840;9.188;2022-12-18T09:28:29;-5.00;99.90
11599;DHT22;5855;48.840;9.188;2022-12-18T09:30:56;-4.90;99.90
11599;DHT22;5855;48.840;9.188;2022-12-18T09:33:23;-4.60;99.90
11599;DHT22;5855;48.840;9.188;2022-12-18T09:35:50;-4.40;99.90
11599;DHT22;5855;48.840;9.188;2022-12-18T09:38:19;-4.10;99.90
11599;DHT22;5855;48.840;9.188;2022-12-18T09:40:48;-3.90;99.90
11599;DHT22;5855;48.840;9.188;2022-12-18T09:43:17;-3.70;99.90
11599;DHT22;5855;48.840;9.188;2022-12-18T09:45:47;-3.70;99.90
11599;DHT22;5855;48.840;9.188;2022-12-18T09:48:19;-3.50;99.90
11599;DHT22;5855;48.840;9.188;2022-12-18T09:50:48;-3.40;99.90
11599;DHT22;5855;48.840;9.188;2022-12-18T09:53:22;-3.20;99.90
11599;DHT22;5855;48.840;9.188;2022-12-18T09:55:51;-3.00;99.90
11599;DHT22;5855;48.840;9.188;2022-12-18T09:58:24;-2.80;99.90
11599;DHT22;5855;48.840;9.188;2022-12-18T10:00:52;-2.50;99.90
11599;DHT22;5855;48.840;9.188;2022-12-18T10:03:20;-2.30;99.90
11599;DHT22;5855;48.840;9.188;2022-12-18T10:05:54;-2.00;99.90
11599;DHT22;5855;48.840;9.188;2022-12-18T10:08:34;-1.70;99.90
11599;DHT22;5855;48.840;9.188;2022-12-18T10:11:32;-1.50;99.90
11599;DHT22;5855;48.840;9.188;2022-12-18T10:14:04;-1.50;99.90
11599;DHT22;5855;48.840;9.188;2022-12-18T10:16:39;-1.40;99.90
11599;DHT22;5855;48.840;9.188;2022-12-18T10:19:23;-1.40;99.90
11599;DHT22;5855;48.840;9.188;2022-12-18T10:21:58;-1.30;99.90
11599;DHT22;5855;48.840;9.188;2022-12-18T10:24:35;-0.80;99.90
11599;DHT22;5855;48.840;9.188;2022-12-18T10:27:14;-0.60;99.90
11599;DHT22;5855;48.840;9.188;2022-12-18T10:29:42;-0.20;99.90
11599;DHT22;5855;48.840;9.188;2022-12-18T10:32:14;0.20;99.90
11599;DHT22;5855;48.840;9.188;2022-12-18T10:34:41;0.50;99.90
11599;DHT22;5855;48.840;9.188;2022-12-18T10:37:15;0.90;99.90
11599;DHT22;5855;48.840;9.188;2022-12-18T10:39:45;1.30;99.90
11599;DHT22;5855;48.840;9.188;2022-12-18T10:42:17;1.70;99.90
11599;DHT22;5855;48.840;9.188;2022-12-18T10:44:44;2.30;99.90
11599;DHT22;5855;48.840;9.188;2022-12-18T10:47:15;2.80;99.90
11599;DHT22;5855;48.840;9.188;2022-12-18T10:49:49;3.50;99.90
11599;DHT22;5855;48.840;9.188;2022-12-18T10:52:18;4.00;99.40
11599;DHT22;5855;48.840;9.188;2022-12-18T10:54:52;4.50;99.50
11599;DHT22;5855;48.840;9.188;2022-12-18T10:57:32;5.50;97.00
11599;DHT22;5855;48.840;9.188;2022-12-18T11:00:18;6.30;94.90
11599;DHT22;5855;48.840;9.188;2022-12-18T11:02:46;6.60;93.90
11599;DHT22;5855;48.840;9.188;2022-12-18T11:05:25;7.40;92.50
11599;DHT22;5855;48.840;9.188;2022-12-18T11:07:52;8.10;90.10
11599;DHT22;5855;48.840;9.188;2022-12-18T11:10:22;8.70;87.10
11599;DHT22;5855;48.840;9.188;2022-12-18T11:12:50;8.20;82.60
11599;DHT22;5855;48.840;9.188;2022-12-18T11:15:19;8.30;83.90
11599;DHT22;5855;48.840;9.188;2022-12-18T11:17:48;7.60;83.50
11599;DHT22;5855;48.840;9.188;2022-12-18T11:20:23;7.30;83.70
11599;DHT22;5855;48.840;9.188;2022-12-18T11:22:57;7.30;84.40
11599;DHT22;5855;48.840;9.188;2022-12-18T11:25:26;8.20;84.90
11599;DHT22;5855;48.840;9.188;2022-12-18T11:27:55;9.00;82.60
11599;DHT22;5855;48.840;9.188;2022-12-18T11:30:24;10.00;78.30
11599;DHT22;5855;48.840;9.188;2022-12-18T11:32:55;10.30;72.70
11599;DHT22;5855;48.840;9.188;2022-12-18T11:35:34;10.50;70.00
11599;DHT22;5855;48.840;9.188;2022-12-18T11:38:10;10.70;68.10
11599;DHT22;5855;48.840;9.188;2022-12-18T11:40:43;11.80;67.10
11599;DHT22;5855;48.840;9.188;2022-12-18T11:43:16;12.60;62.60
11599;DHT22;5855;48.840;9.188;2022-12-18T11:45:50;11.80;59.60
11599;DHT22;5855;48.840;9.188;2022-12-18T11:48:22;12.60;60.90
11599;DHT22;5855;48.840;9.188;2022-12-18T11:50:51;13.70;60.00
11599;DHT22;5855;48.840;9.188;2022-12-18T11:53:19;14.10;56.30
11599;DHT22;5855;48.840;9.188;2022-12-18T11:56:11;14.70;55.00
11599;DHT22;5855;48.840;9.188;2022-12-18T11:58:46;14.10;51.30
11599;DHT22;5855;48.840;9.188;2022-12-18T12:01:28;14.60;50.50
11599;DHT22;5855;48.840;9.188;2022-12-18T12:04:13;14.60;50.40
11599;DHT22;5855;48.840;9.188;2022-12-18T12:06:49;14.10;48.20
11599;DHT22;5855;48.840;9.188;2022-12-18T12:09:24;13.10;48.00
11599;DHT22;5855;48.840;9.188;2022-12-18T12:12:06;12.30;50.50
11599;DHT22;5855;48.840;9.188;2022-12-18T12:14:51;11.10;52.20
11599;DHT22;5855;48.840;9.188;2022-12-18T12:17:24;10.60;52.20
11599;DHT22;5855;48.840;9.188;2022-12-18T12:20:00;10.60;54.20
11599;DHT22;5855;48.840;9.188;2022-12-18T12:22:35;10.50;54.30
11599;DHT22;5855;48.840;9.188;2022-12-18T12:25:21;9.90;55.90
11599;DHT22;5855;48.840;9.188;2022-12-18T12:28:01;9.90;57.00
11599;DHT22;5855;48.840;9.188;2022-12-18T12:30:38;10.60;57.30
11599;DHT22;5855;48.840;9.188;2022-12-18T12:33:15;11.10;55.70
11599;DHT22;5855;48.840;9.188;2022-12-18T12:35:51;11.30;55.90
11599;DHT22;5855;48.840;9.188;2022-12-18T12:38:24;10.30;54.20
11599;DHT22;5855;48.840;9.188;2022-12-18T12:40:54;9.40;57.10
11599;DHT22;5855;48.840;9.188;2022-12-18T12:43:31;9.40;58.90
11599;DHT22;5855;48.840;9.188;2022-12-18T12:46:00;9.60;59.90
11599;DHT22;5855;48.840;9.188;2022-12-18T12:48:36;9.60;59.50
11599;DHT22;5855;48.840;9.188;2022-12-18T12:51:11;9.30;60.30
11599;DHT22;5855;48.840;9.188;2022-12-18T12:53:39;8.30;60.60
11599;DHT22;5855;48.840;9.188;2022-12-18T12:56:09;8.30;62.10
11599;DHT22;5855;48.840;9.188;2022-12-18T12:58:44;7.80;63.90
11599;DHT22;5855;48.840;9.188;2022-12-18T13:01:20;8.10;64.70
11599;DHT22;5855;48.840;9.188;2022-12-18T13:03:56;8.10;64.90
11599;DHT22;5855;48.840;9.188;2022-12-18T13:06:33;7.90;63.50
11599;DHT22;5855;48.840;9.188;2022-12-18T13:09:02;7.80;65.40
11599;DHT22;5855;48.840;9.188;2022-12-18T13:11:32;8.30;65.70
11599;DHT22;5855;48.840;9.188;2022-12-18T13:14:27;8.00;64.70
11599;DHT22;5855;48.840;9.188;2022-12-18T13:20:11;7.20;67.50
11599;DHT22;5855;48.840;9.188;2022-12-18T13:22:42;7.10;68.70
11599;DHT22;5855;48.840;9.188;2022-12-18T13:25:37;7.10;68.70
11599;DHT22;5855;48.840;9.188;2022-12-18T13:28:10;7.30;69.40
11599;DHT22;5855;48.840;9.188;2022-12-18T13:30:50;7.40;69.70
11599;DHT22;5855;48.840;9.188;2022-12-18T13:33:41;7.80;70.30
11599;DHT22;5855;48.840;9.188;2022-12-18T13:36:29;8.10;68.40
11599;DHT22;5855;48.840;9.188;2022-12-18T13:39:15;8.20;68.50
11599;DHT22;5855;48.840;9.188;2022-12-18T13:41:48;8.20;69.10
11599;DHT22;5855;48.840;9.188;2022-12-18T13:44:25;8.20;69.40
11599;DHT22;5855;48.840;9.188;2022-12-18T13:46:56;7.80;70.10
11599;DHT22;5855;48.840;9.188;2022-12-18T13:49:26;7.60;69.60
11599;DHT22;5855;48.840;9.188;2022-12-18T13:51:57;7.60;70.10
11599;DHT22;5855;48.840;9.188;2022-12-18T13:54:30;7.20;72.00
11599;DHT22;5855;48.840;9.188;2022-12-18T13:56:59;7.20;72.70
11599;DHT22;5855;48.840;9.188;2022-12-18T13:59:33;7.00;73.60
11599;DHT22;5855;48.840;9.188;2022-12-18T14:02:11;7.00;73.80
11599;DHT22;5855;48.840;9.188;2022-12-18T14:04:40;7.10;75.70
11599;DHT22;5855;48.840;9.188;2022-12-18T14:07:10;6.80;75.30
11599;DHT22;5855;48.840;9.188;2022-12-18T14:09:41;6.40;77.20
11599;DHT22;5855;48.840;9.188;2022-12-18T14:12:15;6.10;78.00
11599;DHT22;5855;48.840;9.188;2022-12-18T14:14:56;5.50;81.00
11599;DHT22;5855;48.840;9.188;2022-12-18T14:17:25;5.20;85.40
11599;DHT22;5855;48.840;9.188;2022-12-18T14:19:51;5.00;88.20
11599;DHT22;5855;48.840;9.188;2022-12-18T14:22:20;4.80;90.10
11599;DHT22;5855;48.840;9.188;2022-12-18T14:25:04;4.60;91.20
11599;DHT22;5855;48.840;9.188;2022-12-18T14:27:31;4.40;92.00
11599;DHT22;5855;48.840;9.188;2022-12-18T14:29:57;4.00;93.50
11599;DHT22;5855;48.840;9.188;2022-12-18T14:32:26;3.70;95.10
11599;DHT22;5855;48.840;9.188;2022-12-18T14:34:53;3.50;96.60
11599;DHT22;5855;48.840;9.188;2022-12-18T14:37:22;3.30;97.60
11599;DHT22;5855;48.840;9.188;2022-12-18T14:39:57;2.90;98.50
11599;DHT22;5855;48.840;9.188;2022-12-18T14:42:25;2.50;99.90
11599;DHT22;5855;48.840;9.188;2022-12-18T14:47:54;1.80;99.90
11599;DHT22;5855;48.840;9.188;2022-12-18T14:50:21;1.40;99.90
11599;DHT22;5855;48.840;9.188;2022-12-18T14:52:48;1.20;99.90
11599;DHT22;5855;48.840;9.188;2022-12-18T14:55:16;1.00;99.90
11599;DHT22;5855;48.840;9.188;2022-12-18T14:57:44;0.80;99.90
11599;DHT22;5855;48.840;9.188;2022-12-18T15:00:16;0.60;99.90
11599;DHT22;5855;48.840;9.188;2022-12-18T15:02:45;0.30;99.90
11599;DHT22;5855;48.840;9.188;2022-12-18T15:05:19;0.10;99.90
11599;DHT22;5855;48.840;9.188;2022-12-18T15:07:48;-0.10;99.90
11599;DHT22;5855;48.840;9.188;2022-12-18T15:10:18;-0.30;99.90
11599;DHT22;5855;48.840;9.188;2022-12-18T15:12:47;-0.40;99.90
11599;DHT22;5855;48.840;9.188;2022-12-18T15:15:46;-0.60;99.90
11599;DHT22;5855;48.840;9.188;2022-12-18T15:18:15;-0.80;99.90
11599;DHT22;5855;48.840;9.188;2022-12-18T15:20:46;-1.00;99.90
11599;DHT22;5855;48.840;9.188;2022-12-18T15:23:16;-1.10;99.90
11599;DHT22;5855;48.840;9.188;2022-12-18T15:25:43;-1.20;99.90
11599;DHT22;5855;48.840;9.188;2022-12-18T15:28:19;-1.40;99.90
11599;DHT22;5855;48.840;9.188;2022-12-18T15:31:19;-1.50;99.90
11599;DHT22;5855;48.840;9.188;2022-12-18T15:34:05;-1.60;99.90
11599;DHT22;5855;48.840;9.188;2022-12-18T15:36:33;-1.70;99.90
11599;DHT22;5855;48.840;9.188;2022-12-18T15:39:02;-1.80;99.90
11599;DHT22;5855;48.840;9.188;2022-12-18T15:41:31;-1.90;99.90
11599;DHT22;5855;48.840;9.188;2022-12-18T15:43:59;-2.10;99.90
11599;DHT22;5855;48.840;9.188;2022-12-18T15:46:25;-2.10;99.90
11599;DHT22;5855;48.840;9.188;2022-12-18T15:48:54;-2.20;99.90
11599;DHT22;5855;48.840;9.188;2022-12-18T15:51:23;-2.20;99.90
11599;DHT22;5855;48.840;9.188;2022-12-18T15:53:53;-2.30;99.90
11599;DHT22;5855;48.840;9.188;2022-12-18T15:56:20;-2.30;99.90
11599;DHT22;5855;48.840;9.188;2022-12-18T15:59:10;-2.30;99.90
11599;DHT22;5855;48.840;9.188;2022-12-18T16:01:37;-2.40;99.90
11599;DHT22;5855;48.840;9.188;2022-12-18T16:04:04;-2.30;99.90
11599;DHT22;5855;48.840;9.188;2022-12-18T16:06:31;-2.40;99.90
11599;DHT22;5855;48.840;9.188;2022-12-18T16:08:59;-2.40;99.90
11599;DHT22;5855;48.840;9.188;2022-12-18T16:11:27;-2.50;99.90
11599;DHT22;5855;48.840;9.188;2022-12-18T16:14:16;-2.50;99.90
11599;DHT22;5855;48.840;9.188;2022-12-18T16:16:44;-2.60;99.90